CWWU

Ingenika Point Airport

Long Pond, Canada
METAR CWWU 171900Z 27010KT 15SM OVC018 M01/M03 A3038 RMK SC8 SH DIST SW LAST OBS/NXT 190800Z SLP288
Observed Flight Rules
Jan-17 @ 19:00 UTC (5 hours ago) Marginal Visual Flight Rules
Wind Visibility Clouds
270° at 10 knots 15 miles
  • Overcast at 1,800' AGL
Temperatures Readings
Current -1°C / 30°F
Dewpoint -3°C / 27°F
Humidity 86%
Altimeter 30.38" Hg
Pressure 1028.8 hPa
Elevation 13
METAR CWWU 171900Z 27010KT 15SM OVC018 M01/M03 A3038 RMK SC8 SH DIST SW LAST OBS/NXT 190800Z SLP288
Observed Flight Rules
Jan-17 @ 19:00 UTC
(5 hours ago)
MVFR
Wind Visibility
270° at 10 knots 15 miles
Clouds
  • Overcast at 1,800' AGL
Temperature Dewpoint
-1°C / 30°F -3°C / 27°F
Humidity Altimeter Pressure
86% 30.38" Hg 1028.8 hPa